Time;durP1;ratioP1;P1;durP2;ratioP2;P2;SDS_P1;SDS_P2;PMS_P1;PMS_P2;Temp;Humidity;BMP_temperature;BMP_pressure;BME280_temperature;BME280_humidity;BME280_pressure;Samples;Min_cycle;Max_cycle;Signal;HPM_P1;HPM_P2
2023/09/09 00:01:14;;;;;;;16.80;12.20;;;;;;;;;;4969738;28;20030;-80
2023/09/09 00:03:39;;;;;;;13.70;11.18;;;;;;;;;;4990516;28;20025;-80
2023/09/09 00:06:11;;;;;;;14.30;11.30;;;;;;;;;;4974683;28;20030;-80
2023/09/09 00:08:37;;;;;;;13.60;12.20;;;;;;;;;;4989033;28;20034;-80
2023/09/09 00:11:03;;;;;;;13.77;11.13;;;;;;;;;;4983909;28;20437;-80
2023/09/09 00:13:28;;;;;;;11.73;10.52;;;;;;;;;;4973325;28;20034;-80
2023/09/09 00:15:54;;;;;;;13.50;10.88;;;;;;;;;;4970812;28;20041;-80
2023/09/09 00:18:20;;;;;;;14.77;11.57;;;;;;;;;;4974295;28;20629;-79
2023/09/09 00:20:45;;;;;;;13.57;12.18;;;;;;;;;;4987055;28;20070;-80
2023/09/09 00:23:11;;;;;;;14.73;12.93;;;;;;;;;;4960447;28;20042;-81
2023/09/09 00:25:37;;;;;;;14.65;13.13;;;;;;;;;;4975481;28;20026;-82
2023/09/09 00:28:04;;;;;;;14.07;12.32;;;;;;;;;;4972720;28;20570;-81
2023/09/09 00:30:29;;;;;;;13.60;12.20;;;;;;;;;;4972999;28;20037;-82
2023/09/09 00:32:55;;;;;;;13.93;12.43;;;;;;;;;;4973210;28;20034;-82
2023/09/09 00:35:20;;;;;;;13.63;12.20;;;;;;;;;;4992456;28;20033;-85
2023/09/09 00:37:46;;;;;;;14.05;12.10;;;;;;;;;;4990382;28;20104;-85
2023/09/09 00:40:11;;;;;;;14.45;12.15;;;;;;;;;;4975255;28;20638;-86
2023/09/09 00:42:37;;;;;;;14.30;12.57;;;;;;;;;;4977792;28;20465;-85
2023/09/09 00:45:03;;;;;;;15.73;12.52;;;;;;;;;;4992068;28;20572;-86
2023/09/09 00:47:28;;;;;;;16.50;13.35;;;;;;;;;;4992479;28;20509;-86
2023/09/09 00:49:54;;;;;;;14.88;13.30;;;;;;;;;;4969384;28;20030;-86
2023/09/09 00:52:19;;;;;;;16.10;14.50;;;;;;;;;;4974142;28;20109;-87
2023/09/09 00:54:45;;;;;;;15.73;14.13;;;;;;;;;;4975090;28;20129;-86
2023/09/09 00:57:11;;;;;;;18.27;15.30;;;;;;;;;;4972799;28;20058;-86
2023/09/09 00:59:38;;;;;;;19.92;17.83;;;;;;;;;;4989393;28;20037;-85
2023/09/09 01:02:03;;;;;;;20.52;16.38;;;;;;;;;;4971219;28;20080;-85
2023/09/09 01:04:29;;;;;;;18.88;16.60;;;;;;;;;;4987764;28;20025;-85
2023/09/09 01:06:56;;;;;;;21.73;18.85;;;;;;;;;;4988604;28;20038;-83
2023/09/09 01:09:21;;;;;;;22.45;20.05;;;;;;;;;;4989334;28;20034;-86
2023/09/09 01:11:46;;;;;;;22.80;20.35;;;;;;;;;;4978474;28;20402;-86
2023/09/09 01:14:13;;;;;;;25.92;21.70;;;;;;;;;;4990121;28;20394;-79
2023/09/09 01:16:39;;;;;;;23.73;21.13;;;;;;;;;;4971405;28;20034;-79
2023/09/09 01:19:08;;;;;;;22.30;19.60;;;;;;;;;;4991298;28;20030;-80
2023/09/09 01:21:34;;;;;;;23.60;20.95;;;;;;;;;;4993801;28;20081;-79
2023/09/09 01:24:00;;;;;;;24.02;20.15;;;;;;;;;;4990945;28;20475;-80
2023/09/09 01:26:26;;;;;;;23.73;20.00;;;;;;;;;;4977716;28;20029;-80
2023/09/09 01:28:51;;;;;;;22.20;19.05;;;;;;;;;;4978372;28;20387;-82
2023/09/09 01:31:17;;;;;;;20.60;18.40;;;;;;;;;;4996723;28;20156;-81
2023/09/09 01:33:42;;;;;;;20.67;18.48;;;;;;;;;;4997504;28;20057;-81
2023/09/09 01:36:09;;;;;;;22.63;19.52;;;;;;;;;;4980264;28;20029;-81
2023/09/09 01:38:35;;;;;;;22.10;19.77;;;;;;;;;;4979846;28;20501;-82
2023/09/09 01:41:01;;;;;;;22.88;19.92;;;;;;;;;;4996687;28;20032;-81
2023/09/09 01:43:26;;;;;;;25.08;20.75;;;;;;;;;;4997600;28;20030;-82
2023/09/09 01:45:52;;;;;;;23.95;20.23;;;;;;;;;;4985365;28;20113;-82
2023/09/09 01:48:17;;;;;;;26.08;20.92;;;;;;;;;;4978297;28;20394;-81
2023/09/09 01:50:45;;;;;;;22.98;20.50;;;;;;;;;;4997146;28;20860;-81
2023/09/09 01:53:11;;;;;;;23.67;21.17;;;;;;;;;;4997335;28;20470;-82
2023/09/09 01:55:36;;;;;;;26.27;22.23;;;;;;;;;;4995544;28;20030;-81
2023/09/09 01:58:01;;;;;;;25.90;23.25;;;;;;;;;;4996160;28;20026;-82
2023/09/09 02:00:30;;;;;;;27.30;24.45;;;;;;;;;;4976327;28;20027;-81
2023/09/09 02:02:56;;;;;;;30.20;25.45;;;;;;;;;;4978283;28;20393;-81
2023/09/09 02:05:21;;;;;;;28.75;25.60;;;;;;;;;;4975790;28;20034;-85
2023/09/09 02:07:47;;;;;;;29.80;26.45;;;;;;;;;;4996380;28;20040;-83
2023/09/09 02:10:12;;;;;;;28.30;24.95;;;;;;;;;;4998586;28;20084;-85
2023/09/09 02:12:37;;;;;;;28.27;25.15;;;;;;;;;;4997094;28;20033;-81
2023/09/09 02:15:04;;;;;;;28.45;25.20;;;;;;;;;;4995332;28;20030;-82
2023/09/09 02:17:29;;;;;;;30.63;25.92;;;;;;;;;;4971959;28;20029;-82
2023/09/09 02:19:55;;;;;;;26.95;24.15;;;;;;;;;;4977132;28;20461;-82
2023/09/09 02:22:21;;;;;;;27.88;24.00;;;;;;;;;;4972464;28;20022;-81
2023/09/09 02:24:47;;;;;;;28.73;23.92;;;;;;;;;;4992329;28;20486;-80
2023/09/09 02:27:12;;;;;;;22.60;20.30;;;;;;;;;;4988418;28;20496;-80
2023/09/09 02:29:38;;;;;;;21.05;18.70;;;;;;;;;;4980551;28;20064;-80
2023/09/09 02:32:03;;;;;;;20.95;18.20;;;;;;;;;;4991247;28;20037;-86
2023/09/09 02:34:28;;;;;;;22.95;20.30;;;;;;;;;;4997740;28;20066;-87
2023/09/09 02:37:17;;;;;;;20.13;17.95;;;;;;;;;;4989860;28;20046;-86
2023/09/09 02:39:47;;;;;;;22.55;20.15;;;;;;;;;;4987556;28;20132;-86
2023/09/09 02:42:15;;;;;;;23.63;20.80;;;;;;;;;;4989204;28;20460;-86
2023/09/09 02:44:42;;;;;;;22.88;20.45;;;;;;;;;;4979294;28;20018;-87
2023/09/09 02:47:08;;;;;;;22.48;20.05;;;;;;;;;;4981248;28;20494;-87
2023/09/09 02:49:34;;;;;;;20.58;18.38;;;;;;;;;;4977534;28;20026;-87
2023/09/09 02:52:00;;;;;;;20.70;18.35;;;;;;;;;;4979838;28;20089;-86
2023/09/09 02:54:25;;;;;;;22.38;19.98;;;;;;;;;;4997605;28;20030;-86
2023/09/09 02:56:50;;;;;;;20.33;17.83;;;;;;;;;;4991569;28;20026;-82
2023/09/09 02:59:16;;;;;;;23.27;18.85;;;;;;;;;;4975477;28;20475;-81
2023/09/09 03:01:41;;;;;;;20.58;18.38;;;;;;;;;;4978321;28;20069;-82
2023/09/09 03:04:07;;;;;;;23.27;20.42;;;;;;;;;;4992851;28;20030;-81
2023/09/09 03:06:32;;;;;;;23.58;21.00;;;;;;;;;;4974818;28;20026;-81
2023/09/09 03:08:57;;;;;;;25.48;21.25;;;;;;;;;;4977327;28;20022;-81
2023/09/09 03:11:22;;;;;;;23.35;20.75;;;;;;;;;;4974641;28;20034;-81
2023/09/09 03:13:48;;;;;;;24.35;21.77;;;;;;;;;;4974680;28;20038;-85
2023/09/09 03:16:13;;;;;;;25.77;22.65;;;;;;;;;;4992085;28;20018;-80
2023/09/09 03:18:39;;;;;;;25.10;22.45;;;;;;;;;;4990074;28;20027;-79
2023/09/09 03:21:04;;;;;;;26.85;23.92;;;;;;;;;;4971929;28;20026;-79
2023/09/09 03:23:29;;;;;;;30.77;25.90;;;;;;;;;;4973293;28;20061;-80
2023/09/09 03:25:55;;;;;;;27.85;24.10;;;;;;;;;;4984423;28;20447;-79
2023/09/09 03:28:20;;;;;;;30.13;26.17;;;;;;;;;;4988225;28;20482;-80
2023/09/09 03:30:57;;;;;;;30.58;26.13;;;;;;;;;;4971968;28;20034;-80
2023/09/09 03:33:22;;;;;;;31.67;27.48;;;;;;;;;;4972441;28;20038;-81
2023/09/09 03:35:48;;;;;;;31.67;26.23;;;;;;;;;;4989539;28;20031;-83
2023/09/09 03:38:13;;;;;;;34.70;28.10;;;;;;;;;;4972096;28;20053;-81
2023/09/09 03:40:38;;;;;;;31.52;27.40;;;;;;;;;;4969274;28;20482;-81
2023/09/09 03:43:05;;;;;;;32.10;26.88;;;;;;;;;;4972954;28;20027;-82
2023/09/09 03:45:30;;;;;;;31.85;27.20;;;;;;;;;;4975697;28;20133;-82
2023/09/09 03:47:56;;;;;;;33.80;27.45;;;;;;;;;;4972146;28;20180;-82
2023/09/09 03:50:21;;;;;;;33.63;28.00;;;;;;;;;;4971881;28;20141;-82
2023/09/09 03:52:47;;;;;;;35.65;28.65;;;;;;;;;;4973500;28;20041;-81
2023/09/09 03:55:12;;;;;;;33.67;28.88;;;;;;;;;;4971249;28;20157;-81
2023/09/09 03:57:38;;;;;;;36.50;30.20;;;;;;;;;;4972463;28;20057;-83
2023/09/09 04:00:05;;;;;;;33.28;29.13;;;;;;;;;;4991651;28;20054;-81
2023/09/09 04:02:30;;;;;;;37.78;31.55;;;;;;;;;;4989447;28;20489;-82
2023/09/09 04:04:56;;;;;;;36.38;31.02;;;;;;;;;;4974761;28;20022;-80
2023/09/09 04:07:21;;;;;;;36.42;31.02;;;;;;;;;;4991071;28;20038;-80
2023/09/09 04:09:47;;;;;;;39.25;32.78;;;;;;;;;;4973104;28;20030;-80
2023/09/09 04:12:12;;;;;;;42.25;33.60;;;;;;;;;;4987889;28;20034;-80
2023/09/09 04:14:39;;;;;;;40.35;33.40;;;;;;;;;;4968062;28;20018;-80
2023/09/09 04:17:05;;;;;;;40.22;33.13;;;;;;;;;;4988666;28;20022;-80
2023/09/09 04:19:31;;;;;;;39.63;34.17;;;;;;;;;;4970796;28;20029;-80
2023/09/09 04:21:57;;;;;;;41.42;34.60;;;;;;;;;;4971771;28;20033;-80
2023/09/09 04:24:22;;;;;;;42.85;35.28;;;;;;;;;;4989384;28;20161;-85
2023/09/09 04:26:47;;;;;;;40.30;33.60;;;;;;;;;;4991074;28;20117;-85
2023/09/09 04:29:12;;;;;;;38.78;32.53;;;;;;;;;;4987960;28;20026;-85
2023/09/09 04:31:39;;;;;;;44.08;34.35;;;;;;;;;;4971181;28;20041;-85
2023/09/09 04:34:07;;;;;;;38.15;33.13;;;;;;;;;;4971900;28;20033;-85
2023/09/09 04:36:32;;;;;;;37.70;31.48;;;;;;;;;;4972334;28;20501;-85
2023/09/09 04:38:59;;;;;;;34.30;30.45;;;;;;;;;;4972949;28;20034;-85
2023/09/09 04:41:24;;;;;;;37.53;32.22;;;;;;;;;;4991184;28;20026;-85
2023/09/09 04:43:49;;;;;;;32.72;29.33;;;;;;;;;;4989370;28;20044;-85
2023/09/09 04:46:14;;;;;;;31.02;27.90;;;;;;;;;;4972060;28;20026;-85
2023/09/09 04:48:40;;;;;;;30.88;27.77;;;;;;;;;;4968282;28;20030;-85
2023/09/09 04:51:05;;;;;;;30.23;27.17;;;;;;;;;;4972607;28;20022;-84
2023/09/09 04:53:31;;;;;;;27.95;25.25;;;;;;;;;;4990735;28;20367;-81
2023/09/09 04:55:57;;;;;;;27.80;25.00;;;;;;;;;;4977920;28;20382;-81
2023/09/09 04:58:22;;;;;;;28.98;25.88;;;;;;;;;;4978587;28;20060;-81
2023/09/09 05:00:48;;;;;;;30.17;26.98;;;;;;;;;;4994475;28;20026;-85
2023/09/09 05:03:13;;;;;;;29.65;26.45;;;;;;;;;;4992077;28;20113;-85
2023/09/09 05:05:38;;;;;;;27.23;24.48;;;;;;;;;;4974084;28;20398;-85
2023/09/09 05:08:04;;;;;;;27.38;24.58;;;;;;;;;;4993011;28;20030;-84
2023/09/09 05:10:32;;;;;;;27.83;24.90;;;;;;;;;;4977106;28;20041;-85
2023/09/09 05:12:58;;;;;;;26.67;24.02;;;;;;;;;;4993621;28;20113;-86
2023/09/09 05:15:23;;;;;;;26.45;23.75;;;;;;;;;;4992373;28;20092;-84
2023/09/09 05:17:49;;;;;;;28.92;26.02;;;;;;;;;;4994539;28;20037;-84
2023/09/09 05:20:14;;;;;;;30.23;27.08;;;;;;;;;;4977199;28;20015;-79
2023/09/09 05:22:39;;;;;;;28.85;25.90;;;;;;;;;;4990551;28;20036;-80
2023/09/09 05:25:05;;;;;;;30.23;27.13;;;;;;;;;;4968206;28;20033;-79
2023/09/09 05:27:30;;;;;;;28.92;26.02;;;;;;;;;;4987096;28;20030;-80
2023/09/09 05:29:56;;;;;;;30.75;27.55;;;;;;;;;;4972252;28;20054;-79
2023/09/09 05:32:22;;;;;;;31.10;27.92;;;;;;;;;;4968162;28;20027;-79
2023/09/09 05:34:47;;;;;;;29.45;26.45;;;;;;;;;;4971030;28;20089;-85
2023/09/09 05:37:13;;;;;;;32.63;29.40;;;;;;;;;;4987614;28;20361;-83
2023/09/09 05:39:38;;;;;;;32.60;29.50;;;;;;;;;;4970107;28;20109;-84
2023/09/09 05:42:06;;;;;;;33.30;29.90;;;;;;;;;;4986264;28;20041;-83
2023/09/09 05:44:33;;;;;;;31.13;28.02;;;;;;;;;;4986543;28;20109;-84
2023/09/09 05:46:58;;;;;;;33.08;29.88;;;;;;;;;;4986580;28;20038;-83
2023/09/09 05:49:24;;;;;;;31.42;28.42;;;;;;;;;;4982498;28;20030;-83
2023/09/09 05:54:35;;;;;;;32.45;29.17;;;;;;;;;;4976343;28;20500;-84
2023/09/09 05:57:00;;;;;;;31.77;28.67;;;;;;;;;;4976328;28;20026;-84
2023/09/09 05:59:26;;;;;;;32.08;28.90;;;;;;;;;;4980132;28;20058;-85
2023/09/09 06:01:51;;;;;;;32.17;29.05;;;;;;;;;;4991954;28;20034;-84
2023/09/09 06:04:16;;;;;;;33.38;30.10;;;;;;;;;;4973035;28;20054;-84
2023/09/09 06:06:44;;;;;;;31.17;28.20;;;;;;;;;;4990801;28;20129;-84
2023/09/09 06:09:10;;;;;;;27.65;24.95;;;;;;;;;;4991197;28;20030;-84
2023/09/09 06:11:39;;;;;;;30.13;27.13;;;;;;;;;;4971870;28;20125;-84
2023/09/09 06:14:04;;;;;;;31.90;28.63;;;;;;;;;;4990785;28;20109;-84
2023/09/09 06:16:29;;;;;;;32.25;28.95;;;;;;;;;;4993917;28;20130;-84
2023/09/09 06:18:58;;;;;;;33.78;30.30;;;;;;;;;;4973957;28;20040;-84
2023/09/09 06:21:25;;;;;;;31.98;28.48;;;;;;;;;;4972876;28;20332;-84
2023/09/09 06:23:50;;;;;;;33.05;29.55;;;;;;;;;;4976384;28;20030;-85
2023/09/09 06:26:15;;;;;;;33.72;30.15;;;;;;;;;;4993631;28;20101;-84
2023/09/09 06:28:41;;;;;;;34.35;30.67;;;;;;;;;;4987308;28;20054;-84
2023/09/09 06:31:07;;;;;;;33.15;29.73;;;;;;;;;;4970117;28;20390;-84
2023/09/09 06:33:33;;;;;;;34.33;30.73;;;;;;;;;;4978854;28;20037;-85
2023/09/09 06:35:58;;;;;;;36.08;32.35;;;;;;;;;;4973784;28;20109;-84
2023/09/09 06:38:24;;;;;;;36.25;32.35;;;;;;;;;;4975776;28;20038;-84
2023/09/09 06:40:49;;;;;;;36.53;32.45;;;;;;;;;;4976475;28;20077;-85
2023/09/09 06:43:18;;;;;;;34.92;31.17;;;;;;;;;;4972667;28;20022;-85
2023/09/09 06:45:47;;;;;;;36.53;32.60;;;;;;;;;;4971733;28;20414;-85
2023/09/09 06:48:17;;;;;;;37.22;32.72;;;;;;;;;;4989250;28;20026;-85
2023/09/09 06:50:46;;;;;;;33.00;29.33;;;;;;;;;;4971581;28;20026;-84
2023/09/09 06:53:12;;;;;;;34.40;30.80;;;;;;;;;;4974318;28;20022;-83
2023/09/09 06:55:38;;;;;;;37.13;32.22;;;;;;;;;;4989169;28;20548;-79
2023/09/09 06:58:03;;;;;;;33.40;29.73;;;;;;;;;;4992692;28;20030;-79
2023/09/09 07:00:30;;;;;;;37.35;33.03;;;;;;;;;;4974026;28;20140;-78
2023/09/09 07:02:55;;;;;;;39.17;32.80;;;;;;;;;;4974504;28;20457;-80
2023/09/09 07:05:21;;;;;;;38.85;34.15;;;;;;;;;;4977366;28;20025;-84
2023/09/09 07:07:46;;;;;;;38.75;33.20;;;;;;;;;;4979231;28;20449;-84
2023/09/09 07:10:12;;;;;;;40.60;34.75;;;;;;;;;;4972906;28;20030;-84
2023/09/09 07:12:38;;;;;;;37.40;32.25;;;;;;;;;;4979220;28;20073;-83
2023/09/09 07:15:03;;;;;;;37.08;31.67;;;;;;;;;;4983412;28;20037;-84
2023/09/09 07:17:29;;;;;;;35.13;29.50;;;;;;;;;;4974221;28;20026;-83
2023/09/09 07:19:54;;;;;;;36.78;30.17;;;;;;;;;;4973163;28;20054;-84
2023/09/09 07:22:19;;;;;;;46.85;37.50;;;;;;;;;;4990169;28;20105;-84
2023/09/09 07:24:45;;;;;;;45.75;36.08;;;;;;;;;;4987120;28;20038;-83
2023/09/09 07:27:10;;;;;;;42.90;35.22;;;;;;;;;;4970694;28;20026;-84
2023/09/09 07:29:35;;;;;;;40.80;33.40;;;;;;;;;;4991826;28;20109;-85
2023/09/09 07:32:01;;;;;;;36.95;31.25;;;;;;;;;;4991627;28;20066;-86
2023/09/09 07:34:26;;;;;;;46.58;37.08;;;;;;;;;;4987999;28;20534;-84
2023/09/09 07:36:52;;;;;;;46.28;36.25;;;;;;;;;;4968603;28;20521;-84
2023/09/09 07:39:17;;;;;;;47.80;38.22;;;;;;;;;;4988921;28;20125;-85
2023/09/09 07:41:42;;;;;;;38.63;31.48;;;;;;;;;;4975607;28;20022;-86
2023/09/09 07:44:08;;;;;;;49.33;39.00;;;;;;;;;;4992603;28;20030;-84
2023/09/09 07:46:33;;;;;;;45.28;34.88;;;;;;;;;;4973726;28;20468;-85
2023/09/09 07:48:58;;;;;;;47.50;37.67;;;;;;;;;;4991728;28;20490;-83
2023/09/09 07:51:24;;;;;;;49.22;38.47;;;;;;;;;;4975856;28;20030;-86
2023/09/09 07:53:49;;;;;;;45.85;36.15;;;;;;;;;;4979177;28;20121;-86
2023/09/09 07:56:14;;;;;;;48.05;37.35;;;;;;;;;;4975529;28;20026;-86
2023/09/09 07:58:40;;;;;;;46.75;34.20;;;;;;;;;;5000017;28;20022;-85
2023/09/09 08:01:07;;;;;;;50.03;37.72;;;;;;;;;;4975585;28;20032;-85
2023/09/09 08:03:33;;;;;;;42.60;33.78;;;;;;;;;;4975888;28;20390;-86
2023/09/09 08:06:06;;;;;;;41.63;30.85;;;;;;;;;;4977022;28;20033;-86
2023/09/09 08:08:32;;;;;;;47.28;34.50;;;;;;;;;;4977650;28;20029;-85
2023/09/09 08:10:58;;;;;;;43.85;30.17;;;;;;;;;;4973318;28;20041;-86
2023/09/09 08:13:25;;;;;;;46.45;34.20;;;;;;;;;;4986371;28;20026;-85
2023/09/09 08:15:50;;;;;;;48.72;36.45;;;;;;;;;;4980707;28;20482;-81
2023/09/09 08:18:15;;;;;;;45.85;34.15;;;;;;;;;;4971918;28;20073;-81
2023/09/09 08:20:41;;;;;;;52.50;37.83;;;;;;;;;;4971346;28;20041;-81
2023/09/09 08:23:08;;;;;;;55.08;39.63;;;;;;;;;;4986604;28;20026;-82
2023/09/09 08:25:33;;;;;;;52.15;37.08;;;;;;;;;;4959627;28;20378;-84
2023/09/09 08:28:01;;;;;;;50.50;37.35;;;;;;;;;;4986690;28;20029;-83
2023/09/09 08:30:29;;;;;;;57.30;40.47;;;;;;;;;;4982768;28;20067;-84
2023/09/09 08:32:55;;;;;;;55.75;39.92;;;;;;;;;;4966307;28;20034;-84
2023/09/09 08:35:24;;;;;;;57.30;39.80;;;;;;;;;;4981985;28;20029;-84
2023/09/09 08:37:52;;;;;;;53.53;38.90;;;;;;;;;;4988619;28;20465;-83
2023/09/09 08:40:19;;;;;;;53.10;39.15;;;;;;;;;;4982092;28;20031;-83
2023/09/09 08:43:40;;;;;;;53.90;37.70;;;;;;;;;;4963191;28;20034;-85
2023/09/09 08:46:10;;;;;;;34.85;25.90;;;;;;;;;;4923924;29;20042;-83
2023/09/09 08:48:37;;;;;;;53.22;38.72;;;;;;;;;;4972742;28;20065;-84
2023/09/09 08:51:04;;;;;;;51.25;37.00;;;;;;;;;;4962141;28;20030;-85
2023/09/09 08:53:31;;;;;;;47.17;34.10;;;;;;;;;;4966446;28;20034;-84
2023/09/09 08:55:58;;;;;;;56.67;40.63;;;;;;;;;;4983845;28;20030;-82
2023/09/09 08:58:24;;;;;;;46.65;34.83;;;;;;;;;;4967290;28;20030;-85
2023/09/09 09:00:50;;;;;;;45.67;33.15;;;;;;;;;;4964518;28;20181;-83
2023/09/09 09:03:17;;;;;;;55.05;38.42;;;;;;;;;;4981144;28;20156;-84
2023/09/09 09:05:44;;;;;;;56.75;38.20;;;;;;;;;;4986673;28;20030;-85
2023/09/09 09:08:12;;;;;;;59.00;40.83;;;;;;;;;;4963481;28;20371;-86
2023/09/09 09:10:42;;;;;;;57.30;39.78;;;;;;;;;;4964363;28;20030;-87
2023/09/09 09:13:09;;;;;;;55.50;39.40;;;;;;;;;;4987398;28;20474;-87
2023/09/09 09:15:36;;;;;;;56.53;40.63;;;;;;;;;;4966569;28;20041;-87
2023/09/09 09:18:01;;;;;;;54.63;38.70;;;;;;;;;;4984545;28;20075;-88
2023/09/09 09:20:28;;;;;;;58.58;41.33;;;;;;;;;;4969352;28;20481;-87
2023/09/09 09:23:02;;;;;;;57.10;40.72;;;;;;;;;;4984837;28;20457;-86
2023/09/09 09:25:35;;;;;;;48.45;33.00;;;;;;;;;;4965557;28;20033;-87
2023/09/09 09:28:03;;;;;;;56.53;40.85;;;;;;;;;;4830859;28;20159;-85
2023/09/09 09:30:29;;;;;;;61.42;42.45;;;;;;;;;;4944330;28;20133;-87
2023/09/09 09:32:55;;;;;;;52.53;37.65;;;;;;;;;;4945519;28;20049;-87
2023/09/09 09:35:25;;;;;;;53.08;38.63;;;;;;;;;;4943116;28;20035;-85
2023/09/09 09:37:58;;;;;;;56.58;40.92;;;;;;;;;;4943943;28;20498;-86
2023/09/09 09:40:25;;;;;;;55.28;40.15;;;;;;;;;;4949033;28;20484;-85
2023/09/09 09:42:51;;;;;;;60.33;41.10;;;;;;;;;;4943985;28;20035;-86
2023/09/09 09:45:17;;;;;;;47.03;34.40;;;;;;;;;;4945040;28;20110;-86
2023/09/09 09:47:44;;;;;;;55.30;40.22;;;;;;;;;;4938000;28;20031;-87
2023/09/09 09:50:20;;;;;;;52.60;38.25;;;;;;;;;;4943775;28;20035;-85
2023/09/09 09:52:50;;;;;;;57.38;42.45;;;;;;;;;;4946792;28;20081;-84
2023/09/09 09:55:17;;;;;;;52.13;37.80;;;;;;;;;;4960577;28;20085;-85
2023/09/09 09:57:44;;;;;;;57.28;41.75;;;;;;;;;;4938285;28;20312;-85
2023/09/09 10:00:11;;;;;;;56.38;39.28;;;;;;;;;;4940874;28;20491;-86
2023/09/09 10:02:37;;;;;;;50.63;36.58;;;;;;;;;;4944935;28;20042;-86
2023/09/09 10:05:04;;;;;;;47.72;34.92;;;;;;;;;;4939975;28;20113;-87
2023/09/09 10:07:32;;;;;;;52.17;38.92;;;;;;;;;;4942143;28;20399;-85
2023/09/09 10:10:07;;;;;;;47.53;34.65;;;;;;;;;;4958895;28;20597;-87
2023/09/09 10:12:42;;;;;;;49.28;37.00;;;;;;;;;;4943044;28;20040;-87
2023/09/09 10:15:08;;;;;;;47.42;33.40;;;;;;;;;;4941651;28;20039;-87
2023/09/09 10:17:35;;;;;;;47.42;36.53;;;;;;;;;;4937181;28;21674;-85
2023/09/09 10:20:01;;;;;;;40.67;31.88;;;;;;;;;;4939604;28;20034;-86
2023/09/09 10:22:27;;;;;;;44.83;33.15;;;;;;;;;;4946084;28;20034;-86
2023/09/09 10:24:52;;;;;;;39.00;31.15;;;;;;;;;;4945231;28;20028;-86
2023/09/09 10:27:19;;;;;;;44.67;34.35;;;;;;;;;;4940612;28;20023;-84
2023/09/09 10:30:07;;;;;;;43.95;35.20;;;;;;;;;;4944843;28;20500;-85
2023/09/09 10:32:46;;;;;;;36.58;26.17;;;;;;;;;;4959291;28;20515;-86
2023/09/09 10:35:14;;;;;;;32.30;25.30;;;;;;;;;;4939448;28;20052;-85
2023/09/09 10:37:46;;;;;;;28.65;21.13;;;;;;;;;;4939602;28;20043;-85
2023/09/09 10:40:13;;;;;;;30.02;20.63;;;;;;;;;;4944723;28;20518;-84
2023/09/09 10:43:01;;;;;;;37.38;30.42;;;;;;;;;;4948233;28;20027;-85
2023/09/09 10:45:29;;;;;;;18.67;13.77;;;;;;;;;;4941317;28;20114;-84
2023/09/09 10:47:57;;;;;;;17.15;13.35;;;;;;;;;;4938151;28;20062;-84
2023/09/09 10:50:22;;;;;;;23.85;17.75;;;;;;;;;;4944481;28;20034;-85
2023/09/09 10:53:27;;;;;;;23.23;18.13;;;;;;;;;;4963548;28;20031;-85
2023/09/09 10:56:21;;;;;;;16.13;11.40;;;;;;;;;;4947748;28;20535;-84
2023/09/09 10:58:51;;;;;;;18.73;13.85;;;;;;;;;;4951067;28;20068;-84
2023/09/09 11:01:24;;;;;;;18.23;13.95;;;;;;;;;;4947574;28;20708;-84
2023/09/09 11:03:51;;;;;;;23.70;17.35;;;;;;;;;;4950136;28;20045;-84
2023/09/09 11:06:30;;;;;;;19.67;15.40;;;;;;;;;;4944650;28;20058;-85
2023/09/09 11:08:58;;;;;;;15.18;11.68;;;;;;;;;;4944502;28;20451;-85
2023/09/09 11:11:33;;;;;;;14.27;11.00;;;;;;;;;;4939252;28;20243;-85
2023/09/09 11:13:58;;;;;;;23.95;17.42;;;;;;;;;;4958874;28;20032;-84
2023/09/09 11:16:35;;;;;;;13.75;10.15;;;;;;;;;;4940098;28;20082;-83
2023/09/09 11:19:05;;;;;;;8.32;6.25;;;;;;;;;;4943269;28;20066;-85
2023/09/09 11:21:39;;;;;;;7.43;5.13;;;;;;;;;;4959817;28;20033;-85
2023/09/09 11:24:05;;;;;;;7.70;5.68;;;;;;;;;;4947684;28;20603;-85
2023/09/09 11:26:31;;;;;;;7.53;5.85;;;;;;;;;;4943631;28;20038;-84
2023/09/09 11:28:57;;;;;;;6.45;4.95;;;;;;;;;;4941666;28;20042;-84
2023/09/09 11:31:24;;;;;;;7.65;5.20;;;;;;;;;;4937322;28;20043;-85
2023/09/09 11:33:56;;;;;;;6.72;5.47;;;;;;;;;;4937980;28;20034;-84
2023/09/09 11:36:24;;;;;;;8.40;6.28;;;;;;;;;;4952866;28;20026;-84
2023/09/09 11:38:49;;;;;;;8.02;6.05;;;;;;;;;;4940302;28;20159;-85
2023/09/09 11:41:28;;;;;;;8.70;6.28;;;;;;;;;;4940764;28;20043;-84
2023/09/09 11:44:00;;;;;;;11.02;8.75;;;;;;;;;;4939474;28;20490;-84
2023/09/09 11:46:28;;;;;;;9.93;7.13;;;;;;;;;;4942739;28;20037;-84
2023/09/09 11:49:00;;;;;;;15.52;11.63;;;;;;;;;;4939470;28;20063;-84
2023/09/09 11:51:27;;;;;;;;;;;;;;;;;;4954627;28;20126;-83
2023/09/09 11:53:52;;;;;;;13.70;10.80;;;;;;;;;;4942307;28;19918;-84
2023/09/09 11:56:19;;;;;;;12.82;11.35;;;;;;;;;;4958694;28;20050;-85
2023/09/09 11:58:46;;;;;;;11.45;7.88;;;;;;;;;;4944892;28;20035;-86
2023/09/09 12:01:12;;;;;;;11.57;8.07;;;;;;;;;;4940024;28;20038;-83
2023/09/09 12:03:38;;;;;;;13.77;11.45;;;;;;;;;;4942799;28;20030;-84
2023/09/09 12:06:09;;;;;;;9.95;8.85;;;;;;;;;;4940565;28;20034;-85
2023/09/09 12:08:41;;;;;;;15.93;8.88;;;;;;;;;;4933371;28;20489;-84
2023/09/09 12:11:08;;;;;;;11.35;8.50;;;;;;;;;;4937238;28;20031;-85
2023/09/09 12:13:35;;;;;;;10.63;7.07;;;;;;;;;;4933187;28;20499;-85
2023/09/09 12:16:02;;;;;;;11.93;8.32;;;;;;;;;;4931516;28;20177;-85
2023/09/09 12:18:27;;;;;;;11.93;9.05;;;;;;;;;;4931024;28;20570;-85
2023/09/09 12:21:08;;;;;;;14.13;11.05;;;;;;;;;;4928553;28;20126;-85
2023/09/09 12:23:37;;;;;;;9.95;7.00;;;;;;;;;;4934924;28;20094;-85
2023/09/09 12:26:11;;;;;;;13.32;10.70;;;;;;;;;;4910048;28;20031;-85
2023/09/09 12:28:41;;;;;;;12.40;9.60;;;;;;;;;;4947452;28;20122;-84
2023/09/09 12:31:11;;;;;;;9.50;7.15;;;;;;;;;;4932302;28;20545;-85
2023/09/09 12:33:42;;;;;;;9.93;7.10;;;;;;;;;;4930581;28;20524;-85
2023/09/09 12:36:18;;;;;;;8.40;6.43;;;;;;;;;;4936066;28;20403;-85
2023/09/09 12:38:46;;;;;;;9.68;8.00;;;;;;;;;;4931985;28;20034;-84
2023/09/09 12:41:15;;;;;;;10.20;7.13;;;;;;;;;;4933606;28;20376;-85
2023/09/09 12:43:41;;;;;;;9.23;6.88;;;;;;;;;;4933180;28;20403;-85
2023/09/09 12:46:14;;;;;;;9.40;7.88;;;;;;;;;;4930548;28;20059;-85
2023/09/09 12:48:54;;;;;;;11.25;8.20;;;;;;;;;;4928883;28;20117;-85
2023/09/09 12:51:21;;;;;;;12.90;8.48;;;;;;;;;;4933926;28;20053;-85
2023/09/09 12:53:46;;;;;;;9.80;6.75;;;;;;;;;;4949456;28;20035;-85
2023/09/09 12:56:12;;;;;;;9.05;6.97;;;;;;;;;;4932258;28;20023;-86
2023/09/09 12:58:37;;;;;;;10.63;7.80;;;;;;;;;;4931305;28;20047;-85
2023/09/09 13:01:09;;;;;;;14.15;8.60;;;;;;;;;;4931334;28;20541;-85
2023/09/09 13:03:39;;;;;;;10.35;8.30;;;;;;;;;;4928047;28;20487;-85
2023/09/09 13:06:06;;;;;;;10.23;9.00;;;;;;;;;;4916999;28;20775;-85
2023/09/09 13:08:31;;;;;;;8.80;6.68;;;;;;;;;;4931294;28;20476;-85
2023/09/09 13:10:56;;;;;;;12.95;7.10;;;;;;;;;;4948953;28;20039;-85
2023/09/09 13:13:22;;;;;;;8.40;6.47;;;;;;;;;;4927802;28;20611;-85
2023/09/09 13:15:50;;;;;;;7.07;6.15;;;;;;;;;;4930198;28;20214;-84
2023/09/09 13:18:16;;;;;;;10.18;6.88;;;;;;;;;;4928802;28;20192;-85
2023/09/09 13:20:45;;;;;;;6.93;5.55;;;;;;;;;;4938448;28;20487;-85
2023/09/09 13:23:12;;;;;;;9.95;6.22;;;;;;;;;;4937421;28;20020;-85
2023/09/09 13:25:37;;;;;;;8.80;6.97;;;;;;;;;;4934075;28;20370;-84
2023/09/09 13:28:04;;;;;;;8.30;6.60;;;;;;;;;;4935897;28;20083;-86
2023/09/09 13:30:33;;;;;;;8.60;5.80;;;;;;;;;;4938155;28;20045;-85
2023/09/09 13:33:02;;;;;;;6.95;5.40;;;;;;;;;;4938336;28;20043;-84
2023/09/09 13:35:27;;;;;;;11.15;7.57;;;;;;;;;;4935153;28;20046;-86
2023/09/09 13:37:54;;;;;;;6.88;5.55;;;;;;;;;;4937891;28;20031;-86
2023/09/09 13:40:19;;;;;;;8.27;6.28;;;;;;;;;;4937236;28;20038;-86
2023/09/09 13:42:44;;;;;;;8.35;7.25;;;;;;;;;;4938040;28;20042;-86
2023/09/09 13:45:13;;;;;;;9.88;5.57;;;;;;;;;;4934924;28;20728;-86
2023/09/09 13:47:39;;;;;;;10.35;6.00;;;;;;;;;;4951825;28;20404;-87
2023/09/09 13:50:06;;;;;;;9.23;6.82;;;;;;;;;;4936587;28;20071;-85
2023/09/09 13:52:33;;;;;;;9.27;6.97;;;;;;;;;;4939167;28;20027;-85
2023/09/09 13:54:59;;;;;;;8.55;6.18;;;;;;;;;;4941736;28;20031;-85
2023/09/09 13:57:24;;;;;;;11.80;6.70;;;;;;;;;;4952115;28;20134;-86
2023/09/09 13:59:50;;;;;;;8.73;6.10;;;;;;;;;;4938983;28;20534;-86
2023/09/09 14:02:15;;;;;;;8.85;5.50;;;;;;;;;;4932720;28;20424;-86
2023/09/09 14:04:40;;;;;;;10.60;5.47;;;;;;;;;;4938528;28;20031;-84
2023/09/09 14:07:06;;;;;;;9.88;6.18;;;;;;;;;;4935286;28;20960;-86
2023/09/09 14:09:31;;;;;;;10.65;6.47;;;;;;;;;;4940043;28;20121;-86
2023/09/09 14:11:57;;;;;;;7.55;5.30;;;;;;;;;;4942009;28;20054;-84
2023/09/09 14:14:23;;;;;;;7.65;5.57;;;;;;;;;;4936558;28;20029;-86
2023/09/09 14:16:49;;;;;;;8.02;6.03;;;;;;;;;;4940803;28;20654;-86
2023/09/09 14:19:14;;;;;;;6.70;5.10;;;;;;;;;;4940010;28;20037;-86
2023/09/09 14:21:40;;;;;;;7.20;5.13;;;;;;;;;;4935777;28;20062;-84
2023/09/09 14:24:06;;;;;;;7.97;5.50;;;;;;;;;;4940971;28;20723;-85